createdAt,value
2017-10-09T00:01:23.215Z,21.63
2017-10-09T00:13:50.686Z,15.53
2017-10-09T00:15:58.054Z,16.70
2017-10-09T00:18:02.046Z,21.90
2017-10-09T00:20:05.173Z,23.83
2017-10-09T00:22:06.350Z,12.90
2017-10-09T00:24:20.689Z,21.10
2017-10-09T00:26:22.805Z,19.37
2017-10-09T00:31:01.790Z,14.77
2017-10-09T00:33:20.625Z,15.80
2017-10-09T00:35:21.995Z,16.27
2017-10-09T00:37:33.320Z,11.82
2017-10-09T00:39:50.769Z,30.40
2017-10-09T00:41:52.076Z,14.50
2017-10-09T00:43:53.133Z,24.40
2017-10-09T00:48:45.055Z,12.90
2017-10-09T00:50:51.397Z,19.20
2017-10-09T00:52:53.959Z,25.13
2017-10-09T01:05:23.348Z,23.33
2017-10-09T01:07:50.669Z,14.03
2017-10-09T01:09:51.784Z,19.67
2017-10-09T01:11:54.665Z,25.60
2017-10-09T01:13:55.764Z,12.43
2017-10-09T01:15:56.920Z,15.03
2017-10-09T01:17:57.974Z,17.10
2017-10-09T01:20:20.113Z,9.33
2017-10-09T01:22:42.035Z,16.97
2017-10-09T01:27:12.959Z,15.47
2017-10-09T01:29:14.062Z,19.13
2017-10-09T01:31:15.143Z,16.63
2017-10-09T01:33:22.900Z,15.40
2017-10-09T01:38:20.517Z,21.20
2017-10-09T01:42:41.594Z,14.87
2017-10-09T01:49:49.095Z,8.80
2017-10-09T01:54:26.365Z,18.20
2017-10-09T01:56:27.440Z,10.77
2017-10-09T01:58:29.468Z,28.90
2017-10-09T02:00:50.765Z,9.80
2017-10-09T02:02:51.862Z,21.73
2017-10-09T02:07:36.567Z,6.50
2017-10-09T02:09:38.741Z,12.30
2017-10-09T02:11:40.745Z,12.33
2017-10-09T02:13:56.499Z,24.77
2017-10-09T02:16:20.479Z,13.53
2017-10-09T02:20:50.407Z,9.40
2017-10-09T02:25:00.383Z,16.93
2017-10-09T02:27:02.836Z,12.93
2017-10-09T02:29:04.410Z,17.17
2017-10-09T02:33:47.951Z,18.40
2017-10-09T02:53:49.847Z,10.03
2017-10-09T03:00:50.602Z,13.50
2017-10-09T03:02:54.537Z,18.03
2017-10-09T03:04:56.694Z,10.50
2017-10-09T03:07:04.062Z,14.13
2017-10-09T03:09:09.570Z,11.90
2017-10-09T03:13:39.041Z,11.07
2017-10-09T03:20:21.595Z,16.53
2017-10-09T03:22:25.505Z,20.60
2017-10-09T03:24:46.472Z,11.70
2017-10-09T03:26:57.968Z,10.10
2017-10-09T03:29:02.687Z,12.33
2017-10-09T03:31:18.294Z,23.80
2017-10-09T03:33:19.493Z,19.90
2017-10-09T03:47:59.484Z,9.87
2017-10-09T03:50:03.196Z,11.93
2017-10-09T03:52:04.332Z,9.47
2017-10-09T03:54:06.991Z,9.83
2017-10-09T04:03:52.204Z,34.03
2017-10-09T04:08:20.961Z,15.40
2017-10-09T04:10:22.529Z,13.73
2017-10-09T04:14:44.031Z,17.63
2017-10-09T04:16:47.308Z,19.73
2017-10-09T04:18:49.160Z,10.37
2017-10-09T04:25:46.187Z,10.70
2017-10-09T04:30:51.222Z,18.90
2017-10-09T04:32:58.441Z,11.97
2017-10-09T04:35:00.061Z,10.80
2017-10-09T04:37:01.744Z,19.40
2017-10-09T04:39:02.936Z,23.77
2017-10-09T04:41:04.337Z,11.50
2017-10-09T04:43:23.910Z,14.40
2017-10-09T05:07:50.417Z,11.43
2017-10-09T05:14:57.004Z,15.37
2017-10-09T05:22:14.580Z,9.83
2017-10-09T05:24:17.037Z,17.37
2017-10-09T05:26:18.704Z,13.07
2017-10-09T05:28:20.361Z,15.70
2017-10-09T05:30:23.013Z,10.33
2017-10-09T05:32:24.602Z,15.67
2017-10-09T05:34:27.049Z,18.90
2017-10-09T05:36:28.996Z,10.40
2017-10-09T06:01:13.909Z,10.53
2017-10-09T06:05:52.921Z,9.17
2017-10-09T06:08:09.612Z,12.60
2017-10-09T06:10:20.404Z,14.15
2017-10-09T06:14:48.857Z,10.63
2017-10-09T06:16:50.710Z,15.10
2017-10-09T06:28:19.361Z,10.47
2017-10-09T06:30:20.435Z,11.03
2017-10-09T06:32:23.681Z,15.57
2017-10-09T06:34:25.490Z,13.50
2017-10-09T06:36:27.416Z,11.47
2017-10-09T06:38:29.042Z,16.40
2017-10-09T06:40:30.152Z,12.03
2017-10-09T06:42:31.698Z,21.80
2017-10-09T06:44:51.314Z,18.20
2017-10-09T06:52:26.857Z,20.03
2017-10-09T06:54:28.416Z,12.30
2017-10-09T07:11:39.117Z,11.00
2017-10-09T07:16:17.967Z,16.20
2017-10-09T07:21:01.326Z,13.90
2017-10-09T07:23:21.014Z,11.83
2017-10-09T07:30:17.748Z,14.10
2017-10-09T07:32:19.294Z,31.70
2017-10-09T07:34:31.498Z,7.37
2017-10-09T07:39:37.395Z,11.33
2017-10-09T07:46:34.960Z,11.57
2017-10-09T07:48:36.343Z,9.73
2017-10-09T07:50:39.957Z,11.40
2017-10-09T07:57:46.293Z,15.93
2017-10-09T07:59:47.797Z,10.23
2017-10-09T08:04:16.976Z,19.50
2017-10-09T08:06:38.744Z,15.10
2017-10-09T08:08:46.315Z,9.37
2017-10-09T08:11:16.460Z,11.33
2017-10-09T08:20:57.308Z,9.67
2017-10-09T08:27:54.487Z,17.73
2017-10-09T08:30:03.939Z,9.83
2017-10-09T08:32:16.147Z,13.50
2017-10-09T08:42:03.194Z,9.17
2017-10-09T08:44:04.293Z,10.70
2017-10-09T08:46:07.589Z,10.60
2017-10-09T08:48:09.020Z,11.40
2017-10-09T08:50:10.984Z,7.37
2017-10-09T08:52:12.606Z,10.63
2017-10-09T08:54:17.712Z,12.50
2017-10-09T08:56:23.091Z,11.40
2017-10-09T08:58:27.981Z,9.27
2017-10-09T09:00:35.166Z,11.10
2017-10-09T09:02:37.701Z,12.33
2017-10-09T09:04:44.319Z,9.00
2017-10-09T09:06:59.909Z,8.20
2017-10-09T09:09:03.827Z,15.13
2017-10-09T09:11:10.961Z,9.47
2017-10-09T09:13:22.872Z,11.73
2017-10-09T09:15:24.598Z,9.63
2017-10-09T09:17:50.476Z,7.80
2017-10-09T09:27:21.834Z,12.73
2017-10-09T09:31:50.610Z,9.63
2017-10-09T09:33:53.869Z,12.13
2017-10-09T09:35:56.950Z,21.10
2017-10-09T09:38:07.488Z,7.57
2017-10-09T09:40:10.349Z,12.07
2017-10-09T09:42:14.883Z,11.00
2017-10-09T09:44:18.057Z,16.50
2017-10-09T09:46:21.309Z,6.83
2017-10-09T09:48:42.645Z,9.60
2017-10-09T09:50:44.271Z,10.50
2017-10-09T09:52:52.426Z,12.27
2017-10-09T09:54:54.007Z,8.03
2017-10-09T09:56:55.460Z,12.03
2017-10-09T09:58:57.034Z,12.93
2017-10-09T10:01:13.226Z,8.90
2017-10-09T10:03:18.221Z,9.80
2017-10-09T10:07:49.458Z,11.20
2017-10-09T10:10:25.385Z,10.23
2017-10-09T10:12:27.429Z,6.53
2017-10-09T10:14:30.616Z,10.23
2017-10-09T10:16:33.945Z,10.60
2017-10-09T10:18:35.360Z,9.60
2017-10-09T10:23:04.712Z,8.13
2017-10-09T10:25:06.317Z,8.67
2017-10-09T10:27:07.705Z,10.07
2017-10-09T10:29:12.610Z,8.17
2017-10-09T10:31:17.725Z,6.50
2017-10-09T10:33:46.198Z,7.33
2017-10-09T10:35:50.701Z,4.57
2017-10-09T10:40:28.706Z,5.10
2017-10-09T10:44:47.620Z,6.53
2017-10-09T10:47:17.072Z,7.03
2017-10-09T10:57:12.116Z,10.75
2017-10-09T10:59:25.980Z,9.03
2017-10-09T11:01:27.085Z,6.53
2017-10-09T11:03:50.556Z,7.90
2017-10-09T11:08:53.121Z,12.60
2017-10-09T11:11:20.998Z,12.93
2017-10-09T11:20:47.404Z,4.90
2017-10-09T11:23:04.785Z,8.52
2017-10-09T11:25:12.741Z,6.40
2017-10-09T11:27:31.253Z,10.67
2017-10-09T11:32:02.928Z,5.63
2017-10-09T11:34:07.189Z,5.63
2017-10-09T11:41:09.599Z,4.10
2017-10-09T11:47:04.926Z,4.50
2017-10-09T11:49:07.889Z,6.60
2017-10-09T11:51:13.569Z,6.50
2017-10-09T11:58:36.926Z,11.77
2017-10-09T12:05:29.184Z,8.80
2017-10-09T12:09:53.831Z,7.73
2017-10-09T12:14:32.906Z,5.80
2017-10-09T12:27:09.514Z,6.13
2017-10-09T12:34:07.236Z,7.07
2017-10-09T12:36:32.955Z,6.20
2017-10-09T12:38:43.074Z,6.30
2017-10-09T12:43:14.943Z,10.87
2017-10-09T12:45:29.696Z,10.37
2017-10-09T12:50:08.257Z,6.33
2017-10-09T12:52:09.328Z,7.77
2017-10-09T12:54:10.636Z,7.00
2017-10-09T12:56:11.711Z,9.23
2017-10-09T13:03:07.285Z,9.43
2017-10-09T13:07:44.940Z,10.10
2017-10-09T13:09:45.992Z,7.60
2017-10-09T13:11:48.459Z,4.10
2017-10-09T13:14:02.908Z,3.17
2017-10-09T13:21:19.265Z,5.97
2017-10-09T13:23:20.307Z,6.00
2017-10-09T13:25:30.135Z,5.27
2017-10-09T13:27:39.493Z,4.13
2017-10-09T13:29:40.475Z,5.20
2017-10-09T13:34:20.044Z,5.10
2017-10-09T13:36:34.173Z,5.30
2017-10-09T13:38:46.056Z,7.87
2017-10-09T13:45:51.575Z,5.70
2017-10-09T14:00:18.589Z,3.43
2017-10-09T14:05:20.187Z,5.80
2017-10-09T14:10:00.955Z,6.23
2017-10-09T14:12:05.862Z,5.73
2017-10-09T14:14:07.123Z,4.77
2017-10-09T14:18:46.425Z,9.43
2017-10-09T14:20:48.628Z,8.20
2017-10-09T14:22:50.739Z,5.10
2017-10-09T14:24:53.282Z,9.33
2017-10-09T14:29:33.222Z,5.77
2017-10-09T14:41:41.960Z,6.90
2017-10-09T14:43:44.049Z,6.20
2017-10-09T14:45:46.992Z,8.60
2017-10-09T14:48:04.537Z,17.80
2017-10-09T14:50:11.011Z,8.37
2017-10-09T14:52:27.481Z,8.17
2017-10-09T14:54:29.300Z,10.27
2017-10-09T14:56:32.834Z,7.77
2017-10-09T14:58:52.772Z,8.40
2017-10-09T15:00:53.940Z,12.40
2017-10-09T15:02:55.496Z,6.93
2017-10-09T15:04:57.502Z,9.30
2017-10-09T15:09:36.549Z,8.73
2017-10-09T15:11:38.197Z,10.30
2017-10-09T15:13:40.328Z,6.00
2017-10-09T15:15:41.511Z,10.70
2017-10-09T15:17:43.328Z,17.67
2017-10-09T15:22:22.254Z,8.77
2017-10-09T15:24:24.277Z,12.50
2017-10-09T15:26:27.820Z,11.43
2017-10-09T15:28:31.265Z,8.10
2017-10-09T15:30:35.100Z,9.30
2017-10-09T15:32:36.723Z,8.30
2017-10-09T15:34:39.636Z,9.80
2017-10-09T15:36:47.257Z,8.73
2017-10-09T15:38:50.904Z,10.10
2017-10-09T15:43:20.529Z,9.50
2017-10-09T15:45:22.529Z,11.80
2017-10-09T15:52:30.492Z,12.00
2017-10-09T15:54:31.674Z,13.30
2017-10-09T15:59:21.156Z,14.33
2017-10-09T16:01:22.513Z,13.03
2017-10-09T16:03:23.737Z,16.75
2017-10-09T16:07:48.669Z,12.80
2017-10-09T16:09:51.899Z,20.50
2017-10-09T16:11:54.390Z,16.47
2017-10-09T16:13:56.197Z,25.10
2017-10-09T16:16:23.413Z,14.17
2017-10-09T16:18:28.210Z,16.20
2017-10-09T16:20:54.687Z,20.13
2017-10-09T16:25:30.477Z,15.50
2017-10-09T16:30:02.754Z,16.77
2017-10-09T16:32:09.229Z,18.63
2017-10-09T16:34:13.025Z,18.33
2017-10-09T16:38:38.576Z,19.47
2017-10-09T16:43:20.602Z,15.20
2017-10-09T16:45:22.514Z,20.40
2017-10-09T16:47:25.327Z,17.50
2017-10-09T16:49:29.501Z,19.83
2017-10-09T16:51:32.181Z,21.30
2017-10-09T16:53:34.614Z,20.43
2017-10-09T16:55:36.118Z,21.53
2017-10-09T17:00:15.835Z,25.87
2017-10-09T17:02:17.215Z,27.43
2017-10-09T17:04:18.406Z,21.80
2017-10-09T17:06:19.897Z,32.93
2017-10-09T17:08:21.247Z,32.57
2017-10-09T17:10:30.097Z,31.80
2017-10-09T17:12:31.336Z,39.33
2017-10-09T17:14:52.043Z,31.70
2017-10-09T17:17:06.240Z,30.43
2017-10-09T17:19:08.360Z,29.20
2017-10-09T17:21:24.411Z,34.33
2017-10-09T17:23:27.069Z,37.40
2017-10-09T17:25:28.255Z,51.27
2017-10-09T17:27:42.545Z,39.67
2017-10-09T17:29:50.894Z,39.50
2017-10-09T17:36:47.669Z,40.00
2017-10-09T17:38:48.997Z,42.80
2017-10-09T17:43:25.636Z,43.83
2017-10-09T17:45:27.049Z,41.77
2017-10-09T17:47:28.225Z,49.23
2017-10-09T17:49:30.543Z,43.20
2017-10-09T17:51:33.300Z,43.73
2017-10-09T17:53:34.548Z,47.07
2017-10-09T17:55:35.752Z,49.63
2017-10-09T17:57:37.505Z,54.87
2017-10-09T17:59:42.637Z,49.63
2017-10-09T18:04:12.893Z,53.27
2017-10-09T18:06:16.713Z,55.90
2017-10-09T18:15:51.341Z,61.03
2017-10-09T18:17:52.500Z,59.83
2017-10-09T18:22:21.881Z,54.50
2017-10-09T18:39:32.685Z,65.90
